sensor_id;sensor_type;location;lat;lon;timestamp;temperature;humidity
67196;DHT22;54122;53.538;49.366;2022-09-14T00:01:08;11.80;92.40
67196;DHT22;54122;53.538;49.366;2022-09-14T00:03:35;11.90;92.40
67196;DHT22;54122;53.538;49.366;2022-09-14T00:06:02;11.90;92.60
67196;DHT22;54122;53.538;49.366;2022-09-14T00:08:28;11.90;92.50
67196;DHT22;54122;53.538;49.366;2022-09-14T00:10:54;11.90;92.60
67196;DHT22;54122;53.538;49.366;2022-09-14T00:13:20;12.00;92.50
67196;DHT22;54122;53.538;49.366;2022-09-14T00:15:46;12.00;92.60
67196;DHT22;54122;53.538;49.366;2022-09-14T00:18:13;12.00;92.50
67196;DHT22;54122;53.538;49.366;2022-09-14T00:20:39;12.00;92.50
67196;DHT22;54122;53.538;49.366;2022-09-14T00:23:05;12.00;92.60
67196;DHT22;54122;53.538;49.366;2022-09-14T00:25:31;12.00;92.70
67196;DHT22;54122;53.538;49.366;2022-09-14T00:27:57;12.00;92.70
67196;DHT22;54122;53.538;49.366;2022-09-14T00:30:23;12.10;92.70
67196;DHT22;54122;53.538;49.366;2022-09-14T00:32:50;12.10;92.50
67196;DHT22;54122;53.538;49.366;2022-09-14T00:35:16;12.20;92.40
67196;DHT22;54122;53.538;49.366;2022-09-14T00:37:42;12.20;92.30
67196;DHT22;54122;53.538;49.366;2022-09-14T00:40:09;12.20;92.20
67196;DHT22;54122;53.538;49.366;2022-09-14T00:42:37;12.20;92.20
67196;DHT22;54122;53.538;49.366;2022-09-14T00:45:09;12.30;92.30
67196;DHT22;54122;53.538;49.366;2022-09-14T00:47:38;12.30;92.10
67196;DHT22;54122;53.538;49.366;2022-09-14T00:50:04;12.20;92.00
67196;DHT22;54122;53.538;49.366;2022-09-14T00:52:32;12.20;92.00
67196;DHT22;54122;53.538;49.366;2022-09-14T00:54:59;12.20;92.00
67196;DHT22;54122;53.538;49.366;2022-09-14T00:57:27;12.20;92.10
67196;DHT22;54122;53.538;49.366;2022-09-14T00:59:53;12.20;92.00
67196;DHT22;54122;53.538;49.366;2022-09-14T01:02:20;12.20;92.10
67196;DHT22;54122;53.538;49.366;2022-09-14T01:04:47;12.10;92.20
67196;DHT22;54122;53.538;49.366;2022-09-14T01:12:40;12.10;92.20
67196;DHT22;54122;53.538;49.366;2022-09-14T01:25:08;12.10;92.20
67196;DHT22;54122;53.538;49.366;2022-09-14T01:27:36;12.10;92.10
67196;DHT22;54122;53.538;49.366;2022-09-14T01:30:10;12.20;92.00
67196;DHT22;54122;53.538;49.366;2022-09-14T01:38:09;12.30;91.60
67196;DHT22;54122;53.538;49.366;2022-09-14T01:40:41;12.30;91.50
67196;DHT22;54122;53.538;49.366;2022-09-14T01:43:10;12.30;91.30
67196;DHT22;54122;53.538;49.366;2022-09-14T01:45:38;12.30;91.30
67196;DHT22;54122;53.538;49.366;2022-09-14T01:48:07;12.20;91.30
67196;DHT22;54122;53.538;49.366;2022-09-14T01:50:37;12.20;91.30
67196;DHT22;54122;53.538;49.366;2022-09-14T01:53:08;12.20;91.40
67196;DHT22;54122;53.538;49.366;2022-09-14T01:55:42;12.20;91.40
67196;DHT22;54122;53.538;49.366;2022-09-14T01:58:20;12.30;91.50
67196;DHT22;54122;53.538;49.366;2022-09-14T02:00:50;12.20;91.50
67196;DHT22;54122;53.538;49.366;2022-09-14T02:03:19;12.30;91.40
67196;DHT22;54122;53.538;49.366;2022-09-14T02:08:12;12.40;91.20
67196;DHT22;54122;53.538;49.366;2022-09-14T02:10:38;12.40;90.90
67196;DHT22;54122;53.538;49.366;2022-09-14T02:13:05;12.50;90.90
67196;DHT22;54122;53.538;49.366;2022-09-14T02:15:31;12.50;90.80
67196;DHT22;54122;53.538;49.366;2022-09-14T02:17:59;12.50;90.70
67196;DHT22;54122;53.538;49.366;2022-09-14T02:22:51;12.50;90.40
67196;DHT22;54122;53.538;49.366;2022-09-14T02:25:18;12.60;90.20
67196;DHT22;54122;53.538;49.366;2022-09-14T02:27:44;12.70;90.00
67196;DHT22;54122;53.538;49.366;2022-09-14T02:30:12;12.70;89.70
67196;DHT22;54122;53.538;49.366;2022-09-14T02:32:40;12.70;89.10
67196;DHT22;54122;53.538;49.366;2022-09-14T02:35:12;12.80;88.90
67196;DHT22;54122;53.538;49.366;2022-09-14T02:40:31;12.80;87.50
67196;DHT22;54122;53.538;49.366;2022-09-14T02:48:18;13.00;86.40
67196;DHT22;54122;53.538;49.366;2022-09-14T02:53:43;13.00;85.60
67196;DHT22;54122;53.538;49.366;2022-09-14T02:56:11;13.20;84.90
67196;DHT22;54122;53.538;49.366;2022-09-14T02:58:38;13.20;84.90
67196;DHT22;54122;53.538;49.366;2022-09-14T03:01:05;13.20;84.70
67196;DHT22;54122;53.538;49.366;2022-09-14T03:03:32;13.30;84.50
67196;DHT22;54122;53.538;49.366;2022-09-14T03:05:58;13.40;83.70
67196;DHT22;54122;53.538;49.366;2022-09-14T03:08:24;13.40;83.70
67196;DHT22;54122;53.538;49.366;2022-09-14T03:10:51;13.40;83.40
67196;DHT22;54122;53.538;49.366;2022-09-14T03:13:17;13.40;82.70
67196;DHT22;54122;53.538;49.366;2022-09-14T03:15:43;13.40;82.70
67196;DHT22;54122;53.538;49.366;2022-09-14T03:18:09;13.40;82.20
67196;DHT22;54122;53.538;49.366;2022-09-14T03:20:35;13.50;82.30
67196;DHT22;54122;53.538;49.366;2022-09-14T03:23:02;13.50;82.20
67196;DHT22;54122;53.538;49.366;2022-09-14T03:25:29;13.40;82.20
67196;DHT22;54122;53.538;49.366;2022-09-14T03:27:57;13.50;82.10
67196;DHT22;54122;53.538;49.366;2022-09-14T03:30:23;13.50;81.40
67196;DHT22;54122;53.538;49.366;2022-09-14T03:32:49;13.60;80.60
67196;DHT22;54122;53.538;49.366;2022-09-14T03:35:15;13.70;79.80
67196;DHT22;54122;53.538;49.366;2022-09-14T03:37:42;13.70;79.30
67196;DHT22;54122;53.538;49.366;2022-09-14T03:40:10;13.70;78.90
67196;DHT22;54122;53.538;49.366;2022-09-14T03:42:36;13.80;78.90
67196;DHT22;54122;53.538;49.366;2022-09-14T03:45:06;13.80;78.90
67196;DHT22;54122;53.538;49.366;2022-09-14T03:47:32;13.80;79.10
67196;DHT22;54122;53.538;49.366;2022-09-14T03:49:58;13.80;78.20
67196;DHT22;54122;53.538;49.366;2022-09-14T03:52:24;13.80;77.90
67196;DHT22;54122;53.538;49.366;2022-09-14T03:54:50;13.80;78.00
67196;DHT22;54122;53.538;49.366;2022-09-14T03:57:16;13.80;78.00
67196;DHT22;54122;53.538;49.366;2022-09-14T03:59:42;13.80;78.40
67196;DHT22;54122;53.538;49.366;2022-09-14T04:02:08;13.80;78.60
67196;DHT22;54122;53.538;49.366;2022-09-14T04:04:34;13.80;78.50
67196;DHT22;54122;53.538;49.366;2022-09-14T04:07:00;13.80;78.60
67196;DHT22;54122;53.538;49.366;2022-09-14T04:09:26;13.80;78.50
67196;DHT22;54122;53.538;49.366;2022-09-14T04:11:52;13.80;78.10
67196;DHT22;54122;53.538;49.366;2022-09-14T04:14:18;13.80;78.20
67196;DHT22;54122;53.538;49.366;2022-09-14T04:16:44;13.90;78.20
67196;DHT22;54122;53.538;49.366;2022-09-14T04:19:11;13.80;78.00
67196;DHT22;54122;53.538;49.366;2022-09-14T04:21:37;13.80;78.10
67196;DHT22;54122;53.538;49.366;2022-09-14T04:24:03;13.90;78.20
67196;DHT22;54122;53.538;49.366;2022-09-14T04:26:29;13.90;78.90
67196;DHT22;54122;53.538;49.366;2022-09-14T04:28:56;13.90;76.90
67196;DHT22;54122;53.538;49.366;2022-09-14T04:31:22;13.90;77.00
67196;DHT22;54122;53.538;49.366;2022-09-14T04:33:48;13.90;76.60
67196;DHT22;54122;53.538;49.366;2022-09-14T04:36:19;13.80;76.80
67196;DHT22;54122;53.538;49.366;2022-09-14T04:38:45;13.80;77.00
67196;DHT22;54122;53.538;49.366;2022-09-14T04:41:15;13.90;76.80
67196;DHT22;54122;53.538;49.366;2022-09-14T04:43:42;13.80;76.70
67196;DHT22;54122;53.538;49.366;2022-09-14T04:46:12;13.90;76.70
67196;DHT22;54122;53.538;49.366;2022-09-14T04:48:39;13.90;76.80
67196;DHT22;54122;53.538;49.366;2022-09-14T04:51:38;13.90;76.60
67196;DHT22;54122;53.538;49.366;2022-09-14T04:53:59;13.90;76.70
67196;DHT22;54122;53.538;49.366;2022-09-14T04:56:26;13.90;76.50
67196;DHT22;54122;53.538;49.366;2022-09-14T04:58:56;13.90;76.40
67196;DHT22;54122;53.538;49.366;2022-09-14T05:01:27;13.90;76.30
67196;DHT22;54122;53.538;49.366;2022-09-14T05:03:54;13.90;76.30
67196;DHT22;54122;53.538;49.366;2022-09-14T05:06:21;13.90;76.30
67196;DHT22;54122;53.538;49.366;2022-09-14T05:08:48;14.00;76.00
67196;DHT22;54122;53.538;49.366;2022-09-14T05:11:15;14.00;75.50
67196;DHT22;54122;53.538;49.366;2022-09-14T05:13:41;14.00;75.00
67196;DHT22;54122;53.538;49.366;2022-09-14T05:16:08;14.10;74.50
67196;DHT22;54122;53.538;49.366;2022-09-14T05:18:35;14.20;74.00
67196;DHT22;54122;53.538;49.366;2022-09-14T05:21:05;14.20;73.90
67196;DHT22;54122;53.538;49.366;2022-09-14T05:23:31;14.30;73.70
67196;DHT22;54122;53.538;49.366;2022-09-14T05:25:57;14.40;73.80
67196;DHT22;54122;53.538;49.366;2022-09-14T05:28:24;14.60;73.00
67196;DHT22;54122;53.538;49.366;2022-09-14T05:30:51;14.70;72.30
67196;DHT22;54122;53.538;49.366;2022-09-14T05:33:17;14.80;71.60
67196;DHT22;54122;53.538;49.366;2022-09-14T05:35:44;14.80;70.50
67196;DHT22;54122;53.538;49.366;2022-09-14T05:38:10;14.70;70.00
67196;DHT22;54122;53.538;49.366;2022-09-14T05:40:35;14.70;70.00
67196;DHT22;54122;53.538;49.366;2022-09-14T05:43:04;14.70;69.80
67196;DHT22;54122;53.538;49.366;2022-09-14T05:45:32;14.60;70.00
67196;DHT22;54122;53.538;49.366;2022-09-14T05:48:01;14.60;70.10
67196;DHT22;54122;53.538;49.366;2022-09-14T05:50:32;14.60;70.00
67196;DHT22;54122;53.538;49.366;2022-09-14T05:52:59;14.60;70.40
67196;DHT22;54122;53.538;49.366;2022-09-14T05:55:25;14.60;70.60
67196;DHT22;54122;53.538;49.366;2022-09-14T05:57:54;14.70;70.10
67196;DHT22;54122;53.538;49.366;2022-09-14T06:00:20;14.80;70.00
67196;DHT22;54122;53.538;49.366;2022-09-14T06:02:55;14.80;69.70
67196;DHT22;54122;53.538;49.366;2022-09-14T06:05:22;14.90;69.70
67196;DHT22;54122;53.538;49.366;2022-09-14T06:07:51;14.90;69.60
67196;DHT22;54122;53.538;49.366;2022-09-14T06:10:18;14.90;69.10
67196;DHT22;54122;53.538;49.366;2022-09-14T06:12:44;15.00;69.30
67196;DHT22;54122;53.538;49.366;2022-09-14T06:15:12;15.00;68.70
67196;DHT22;54122;53.538;49.366;2022-09-14T06:17:38;15.10;68.50
67196;DHT22;54122;53.538;49.366;2022-09-14T06:20:04;15.20;68.10
67196;DHT22;54122;53.538;49.366;2022-09-14T06:22:32;15.20;67.70
67196;DHT22;54122;53.538;49.366;2022-09-14T06:24:58;15.30;67.40
67196;DHT22;54122;53.538;49.366;2022-09-14T06:27:24;15.50;67.40
67196;DHT22;54122;53.538;49.366;2022-09-14T06:29:50;15.60;67.10
67196;DHT22;54122;53.538;49.366;2022-09-14T06:32:18;15.70;65.00
67196;DHT22;54122;53.538;49.366;2022-09-14T06:34:44;15.80;65.20
67196;DHT22;54122;53.538;49.366;2022-09-14T06:37:11;15.90;65.10
67196;DHT22;54122;53.538;49.366;2022-09-14T06:39:37;16.10;64.30
67196;DHT22;54122;53.538;49.366;2022-09-14T06:42:03;16.20;63.70
67196;DHT22;54122;53.538;49.366;2022-09-14T06:44:29;16.40;63.40
67196;DHT22;54122;53.538;49.366;2022-09-14T06:46:55;16.50;62.60
67196;DHT22;54122;53.538;49.366;2022-09-14T06:49:21;16.70;60.60
67196;DHT22;54122;53.538;49.366;2022-09-14T06:51:48;17.00;59.50
67196;DHT22;54122;53.538;49.366;2022-09-14T06:54:15;17.30;59.00
67196;DHT22;54122;53.538;49.366;2022-09-14T06:56:42;17.70;57.60
67196;DHT22;54122;53.538;49.366;2022-09-14T06:59:10;18.00;55.70
67196;DHT22;54122;53.538;49.366;2022-09-14T07:01:36;18.30;55.40
67196;DHT22;54122;53.538;49.366;2022-09-14T07:04:03;18.40;53.90
67196;DHT22;54122;53.538;49.366;2022-09-14T07:06:31;18.40;53.60
67196;DHT22;54122;53.538;49.366;2022-09-14T07:08:57;18.50;53.90
67196;DHT22;54122;53.538;49.366;2022-09-14T07:11:25;18.50;53.20
67196;DHT22;54122;53.538;49.366;2022-09-14T07:13:51;18.60;52.80
67196;DHT22;54122;53.538;49.366;2022-09-14T07:16:19;18.60;52.20
67196;DHT22;54122;53.538;49.366;2022-09-14T07:18:45;18.60;52.20
67196;DHT22;54122;53.538;49.366;2022-09-14T07:21:12;18.60;51.30
67196;DHT22;54122;53.538;49.366;2022-09-14T07:23:39;18.50;51.10
67196;DHT22;54122;53.538;49.366;2022-09-14T07:26:11;18.50;51.80
67196;DHT22;54122;53.538;49.366;2022-09-14T07:28:37;18.40;52.00
67196;DHT22;54122;53.538;49.366;2022-09-14T07:31:04;18.40;52.10
67196;DHT22;54122;53.538;49.366;2022-09-14T07:33:30;18.30;52.50
67196;DHT22;54122;53.538;49.366;2022-09-14T07:36:04;18.20;53.00
67196;DHT22;54122;53.538;49.366;2022-09-14T07:38:30;18.20;53.40
67196;DHT22;54122;53.538;49.366;2022-09-14T07:40:56;18.10;52.50
67196;DHT22;54122;53.538;49.366;2022-09-14T07:43:23;17.90;52.80
67196;DHT22;54122;53.538;49.366;2022-09-14T07:45:49;17.90;53.30
67196;DHT22;54122;53.538;49.366;2022-09-14T07:48:15;17.70;52.80
67196;DHT22;54122;53.538;49.366;2022-09-14T07:50:41;17.60;52.90
67196;DHT22;54122;53.538;49.366;2022-09-14T07:53:07;17.50;53.00
67196;DHT22;54122;53.538;49.366;2022-09-14T07:55:33;17.40;53.30
67196;DHT22;54122;53.538;49.366;2022-09-14T07:57:59;17.40;53.70
67196;DHT22;54122;53.538;49.366;2022-09-14T08:00:25;17.40;54.00
67196;DHT22;54122;53.538;49.366;2022-09-14T08:02:52;17.30;54.70
67196;DHT22;54122;53.538;49.366;2022-09-14T08:05:18;17.30;53.10
67196;DHT22;54122;53.538;49.366;2022-09-14T08:07:44;17.20;52.70
67196;DHT22;54122;53.538;49.366;2022-09-14T08:10:10;17.20;51.70
67196;DHT22;54122;53.538;49.366;2022-09-14T08:12:36;17.20;51.10
67196;DHT22;54122;53.538;49.366;2022-09-14T08:15:03;17.20;50.10
67196;DHT22;54122;53.538;49.366;2022-09-14T08:17:30;17.20;50.50
67196;DHT22;54122;53.538;49.366;2022-09-14T08:19:56;17.20;49.00
67196;DHT22;54122;53.538;49.366;2022-09-14T08:22:22;17.10;48.90
67196;DHT22;54122;53.538;49.366;2022-09-14T08:24:50;17.20;49.30
67196;DHT22;54122;53.538;49.366;2022-09-14T08:27:18;17.10;48.70
67196;DHT22;54122;53.538;49.366;2022-09-14T08:29:44;17.10;49.10
67196;DHT22;54122;53.538;49.366;2022-09-14T08:32:10;17.10;49.00
67196;DHT22;54122;53.538;49.366;2022-09-14T08:34:37;17.20;49.40
67196;DHT22;54122;53.538;49.366;2022-09-14T08:37:03;17.20;49.80
67196;DHT22;54122;53.538;49.366;2022-09-14T08:39:29;17.20;49.00
67196;DHT22;54122;53.538;49.366;2022-09-14T08:41:56;17.20;49.40
67196;DHT22;54122;53.538;49.366;2022-09-14T08:49:26;17.30;49.00
67196;DHT22;54122;53.538;49.366;2022-09-14T08:51:54;17.40;48.90
67196;DHT22;54122;53.538;49.366;2022-09-14T08:54:21;17.40;48.20
67196;DHT22;54122;53.538;49.366;2022-09-14T08:56:55;17.60;48.40
67196;DHT22;54122;53.538;49.366;2022-09-14T08:59:44;17.70;47.40
67196;DHT22;54122;53.538;49.366;2022-09-14T09:07:13;18.30;45.20
67196;DHT22;54122;53.538;49.366;2022-09-14T09:09:43;18.70;43.40
67196;DHT22;54122;53.538;49.366;2022-09-14T09:12:14;18.80;43.00
67196;DHT22;54122;53.538;49.366;2022-09-14T09:14:51;18.90;42.10
67196;DHT22;54122;53.538;49.366;2022-09-14T09:17:23;19.00;42.10
67196;DHT22;54122;53.538;49.366;2022-09-14T09:19:54;19.40;42.00
67196;DHT22;54122;53.538;49.366;2022-09-14T09:22:23;19.90;39.90
67196;DHT22;54122;53.538;49.366;2022-09-14T09:24:51;20.30;39.60
67196;DHT22;54122;53.538;49.366;2022-09-14T09:27:18;20.80;39.60
67196;DHT22;54122;53.538;49.366;2022-09-14T09:29:44;21.30;36.50
67196;DHT22;54122;53.538;49.366;2022-09-14T09:32:18;21.40;36.10
67196;DHT22;54122;53.538;49.366;2022-09-14T09:34:45;21.30;36.30
67196;DHT22;54122;53.538;49.366;2022-09-14T09:37:19;21.10;37.10
67196;DHT22;54122;53.538;49.366;2022-09-14T09:39:45;21.10;37.50
67196;DHT22;54122;53.538;49.366;2022-09-14T09:42:19;21.10;36.80
67196;DHT22;54122;53.538;49.366;2022-09-14T09:45:18;21.20;37.30
67196;DHT22;54122;53.538;49.366;2022-09-14T09:47:37;21.40;37.30
67196;DHT22;54122;53.538;49.366;2022-09-14T09:50:05;21.50;36.80
67196;DHT22;54122;53.538;49.366;2022-09-14T09:52:50;21.40;36.90
67196;DHT22;54122;53.538;49.366;2022-09-14T09:55:18;21.20;36.80
67196;DHT22;54122;53.538;49.366;2022-09-14T09:57:44;21.20;37.40
67196;DHT22;54122;53.538;49.366;2022-09-14T10:00:21;21.20;37.90
67196;DHT22;54122;53.538;49.366;2022-09-14T10:02:48;21.40;37.60
67196;DHT22;54122;53.538;49.366;2022-09-14T10:05:18;21.50;37.00
67196;DHT22;54122;53.538;49.366;2022-09-14T10:10:13;21.50;38.00
67196;DHT22;54122;53.538;49.366;2022-09-14T10:13:15;21.60;37.30
67196;DHT22;54122;53.538;49.366;2022-09-14T10:15:33;21.80;37.30
67196;DHT22;54122;53.538;49.366;2022-09-14T10:20:25;22.60;36.10
67196;DHT22;54122;53.538;49.366;2022-09-14T10:22:51;22.80;35.60
67196;DHT22;54122;53.538;49.366;2022-09-14T10:30:20;22.30;36.00
67196;DHT22;54122;53.538;49.366;2022-09-14T10:35:15;21.90;36.80
67196;DHT22;54122;53.538;49.366;2022-09-14T10:40:19;21.60;36.90
67196;DHT22;54122;53.538;49.366;2022-09-14T10:42:54;21.50;37.50
67196;DHT22;54122;53.538;49.366;2022-09-14T10:45:27;21.40;36.90
67196;DHT22;54122;53.538;49.366;2022-09-14T11:03:31;21.00;37.90
67196;DHT22;54122;53.538;49.366;2022-09-14T11:11:25;20.80;38.20
67196;DHT22;54122;53.538;49.366;2022-09-14T11:16:25;20.30;38.80
67196;DHT22;54122;53.538;49.366;2022-09-14T11:21:31;20.20;38.70
67196;DHT22;54122;53.538;49.366;2022-09-14T11:24:04;20.00;39.00
67196;DHT22;54122;53.538;49.366;2022-09-14T11:26:35;19.80;39.50
67196;DHT22;54122;53.538;49.366;2022-09-14T11:31:33;19.70;40.80
67196;DHT22;54122;53.538;49.366;2022-09-14T11:36:49;19.60;39.20
67196;DHT22;54122;53.538;49.366;2022-09-14T11:39:19;19.60;39.30
67196;DHT22;54122;53.538;49.366;2022-09-14T11:41:48;19.60;39.30
67196;DHT22;54122;53.538;49.366;2022-09-14T11:44:17;19.60;39.10
67196;DHT22;54122;53.538;49.366;2022-09-14T11:46:48;19.60;38.50
67196;DHT22;54122;53.538;49.366;2022-09-14T11:54:42;19.50;38.30
67196;DHT22;54122;53.538;49.366;2022-09-14T11:57:11;19.60;38.70
67196;DHT22;54122;53.538;49.366;2022-09-14T12:12:40;18.60;41.90
67196;DHT22;54122;53.538;49.366;2022-09-14T12:17:39;18.40;43.50
67196;DHT22;54122;53.538;49.366;2022-09-14T12:25:36;18.60;43.10
67196;DHT22;54122;53.538;49.366;2022-09-14T12:28:19;18.60;42.90
67196;DHT22;54122;53.538;49.366;2022-09-14T12:40:55;18.60;42.90
67196;DHT22;54122;53.538;49.366;2022-09-14T12:46:09;18.70;43.10
67196;DHT22;54122;53.538;49.366;2022-09-14T12:59:26;19.00;42.70
67196;DHT22;54122;53.538;49.366;2022-09-14T13:04:40;19.10;43.30
67196;DHT22;54122;53.538;49.366;2022-09-14T13:07:12;19.10;42.50
67196;DHT22;54122;53.538;49.366;2022-09-14T13:09:43;19.10;41.90
67196;DHT22;54122;53.538;49.366;2022-09-14T13:12:10;19.00;42.10
67196;DHT22;54122;53.538;49.366;2022-09-14T13:14:47;19.00;42.00
67196;DHT22;54122;53.538;49.366;2022-09-14T13:17:15;18.70;43.20
67196;DHT22;54122;53.538;49.366;2022-09-14T13:19:42;18.40;44.40
67196;DHT22;54122;53.538;49.366;2022-09-14T13:22:18;18.10;44.80
67196;DHT22;54122;53.538;49.366;2022-09-14T13:24:45;18.10;44.70
67196;DHT22;54122;53.538;49.366;2022-09-14T13:27:30;18.10;44.70
67196;DHT22;54122;53.538;49.366;2022-09-14T13:30:06;18.10;44.60
67196;DHT22;54122;53.538;49.366;2022-09-14T13:32:33;18.10;44.80
67196;DHT22;54122;53.538;49.366;2022-09-14T13:35:00;18.20;44.80
67196;DHT22;54122;53.538;49.366;2022-09-14T13:37:26;18.10;44.90
67196;DHT22;54122;53.538;49.366;2022-09-14T13:39:53;18.10;45.10
67196;DHT22;54122;53.538;49.366;2022-09-14T13:42:20;18.00;45.50
67196;DHT22;54122;53.538;49.366;2022-09-14T13:44:46;18.00;46.10
67196;DHT22;54122;53.538;49.366;2022-09-14T13:47:15;17.90;46.90
67196;DHT22;54122;53.538;49.366;2022-09-14T13:49:42;17.90;47.40
67196;DHT22;54122;53.538;49.366;2022-09-14T13:54:48;17.70;48.30
67196;DHT22;54122;53.538;49.366;2022-09-14T13:57:15;17.50;48.90
67196;DHT22;54122;53.538;49.366;2022-09-14T14:02:26;17.30;50.10
67196;DHT22;54122;53.538;49.366;2022-09-14T14:04:52;17.20;50.70
67196;DHT22;54122;53.538;49.366;2022-09-14T14:07:21;17.10;51.50
67196;DHT22;54122;53.538;49.366;2022-09-14T14:09:49;16.80;52.70
67196;DHT22;54122;53.538;49.366;2022-09-14T14:12:26;16.70;53.60
67196;DHT22;54122;53.538;49.366;2022-09-14T14:14:56;16.50;55.00
67196;DHT22;54122;53.538;49.366;2022-09-14T14:19:56;15.90;57.00
67196;DHT22;54122;53.538;49.366;2022-09-14T14:22:27;15.70;58.10
67196;DHT22;54122;53.538;49.366;2022-09-14T14:24:53;15.60;58.70
67196;DHT22;54122;53.538;49.366;2022-09-14T14:29:52;15.40;60.10
67196;DHT22;54122;53.538;49.366;2022-09-14T14:32:18;15.50;60.30
67196;DHT22;54122;53.538;49.366;2022-09-14T14:34:44;15.60;60.10
67196;DHT22;54122;53.538;49.366;2022-09-14T14:37:13;15.70;59.80
67196;DHT22;54122;53.538;49.366;2022-09-14T14:39:39;15.70;59.80
67196;DHT22;54122;53.538;49.366;2022-09-14T14:42:05;15.70;60.20
67196;DHT22;54122;53.538;49.366;2022-09-14T14:44:34;15.60;60.50
67196;DHT22;54122;53.538;49.366;2022-09-14T14:47:00;15.60;61.00
67196;DHT22;54122;53.538;49.366;2022-09-14T14:49:26;15.60;61.50
67196;DHT22;54122;53.538;49.366;2022-09-14T14:51:53;15.60;61.50
67196;DHT22;54122;53.538;49.366;2022-09-14T14:54:19;15.70;61.20
67196;DHT22;54122;53.538;49.366;2022-09-14T14:56:46;15.70;61.30
67196;DHT22;54122;53.538;49.366;2022-09-14T14:59:22;15.70;61.20
67196;DHT22;54122;53.538;49.366;2022-09-14T15:01:49;15.70;61.50
67196;DHT22;54122;53.538;49.366;2022-09-14T15:04:15;15.70;61.60
67196;DHT22;54122;53.538;49.366;2022-09-14T15:06:41;15.70;61.60
67196;DHT22;54122;53.538;49.366;2022-09-14T15:09:18;15.70;61.60
67196;DHT22;54122;53.538;49.366;2022-09-14T15:11:44;15.60;61.60
67196;DHT22;54122;53.538;49.366;2022-09-14T15:14:14;15.60;61.50
67196;DHT22;54122;53.538;49.366;2022-09-14T15:16:40;15.60;61.50
67196;DHT22;54122;53.538;49.366;2022-09-14T15:19:06;15.70;62.60
67196;DHT22;54122;53.538;49.366;2022-09-14T15:21:32;15.70;61.20
67196;DHT22;54122;53.538;49.366;2022-09-14T15:23:58;15.70;60.80
67196;DHT22;54122;53.538;49.366;2022-09-14T15:26:25;15.80;60.60
67196;DHT22;54122;53.538;49.366;2022-09-14T15:28:52;15.80;60.10
67196;DHT22;54122;53.538;49.366;2022-09-14T15:31:18;15.80;60.00
67196;DHT22;54122;53.538;49.366;2022-09-14T15:33:44;15.90;59.90
67196;DHT22;54122;53.538;49.366;2022-09-14T15:36:10;15.90;59.90
67196;DHT22;54122;53.538;49.366;2022-09-14T15:38:36;15.90;59.90
67196;DHT22;54122;53.538;49.366;2022-09-14T15:41:03;15.90;60.00
67196;DHT22;54122;53.538;49.366;2022-09-14T15:43:29;15.90;60.10
67196;DHT22;54122;53.538;49.366;2022-09-14T15:45:59;15.90;59.80
67196;DHT22;54122;53.538;49.366;2022-09-14T15:48:31;15.90;59.70
67196;DHT22;54122;53.538;49.366;2022-09-14T15:51:26;16.00;59.20
67196;DHT22;54122;53.538;49.366;2022-09-14T15:53:57;16.00;58.60
67196;DHT22;54122;53.538;49.366;2022-09-14T15:56:23;16.00;58.90
67196;DHT22;54122;53.538;49.366;2022-09-14T15:58:49;15.90;59.30
67196;DHT22;54122;53.538;49.366;2022-09-14T16:01:16;15.80;59.70
67196;DHT22;54122;53.538;49.366;2022-09-14T16:03:42;15.80;60.20
67196;DHT22;54122;53.538;49.366;2022-09-14T16:06:12;15.70;61.00
67196;DHT22;54122;53.538;49.366;2022-09-14T16:08:38;15.60;61.60
67196;DHT22;54122;53.538;49.366;2022-09-14T16:11:08;15.50;62.30
67196;DHT22;54122;53.538;49.366;2022-09-14T16:13:34;15.40;63.00
67196;DHT22;54122;53.538;49.366;2022-09-14T16:16:01;15.40;63.30
67196;DHT22;54122;53.538;49.366;2022-09-14T16:18:32;15.30;63.80
67196;DHT22;54122;53.538;49.366;2022-09-14T16:21:06;15.30;64.00
67196;DHT22;54122;53.538;49.366;2022-09-14T16:23:33;15.20;64.70
67196;DHT22;54122;53.538;49.366;2022-09-14T16:26:03;15.10;65.50
67196;DHT22;54122;53.538;49.366;2022-09-14T16:28:29;15.00;65.80
67196;DHT22;54122;53.538;49.366;2022-09-14T16:31:08;14.90;66.60
67196;DHT22;54122;53.538;49.366;2022-09-14T16:33:41;14.80;67.50
67196;DHT22;54122;53.538;49.366;2022-09-14T16:36:08;14.70;68.00
67196;DHT22;54122;53.538;49.366;2022-09-14T16:38:39;14.60;69.10
67196;DHT22;54122;53.538;49.366;2022-09-14T16:41:11;14.50;69.90
67196;DHT22;54122;53.538;49.366;2022-09-14T16:43:37;14.40;70.80
67196;DHT22;54122;53.538;49.366;2022-09-14T16:46:08;14.30;71.90
67196;DHT22;54122;53.538;49.366;2022-09-14T16:48:35;14.30;73.00
67196;DHT22;54122;53.538;49.366;2022-09-14T16:51:04;14.20;73.50
67196;DHT22;54122;53.538;49.366;2022-09-14T16:53:32;14.10;73.80
67196;DHT22;54122;53.538;49.366;2022-09-14T16:56:05;14.10;74.30
67196;DHT22;54122;53.538;49.366;2022-09-14T16:58:32;14.00;74.90
67196;DHT22;54122;53.538;49.366;2022-09-14T17:01:05;14.00;75.70
67196;DHT22;54122;53.538;49.366;2022-09-14T17:03:32;14.00;76.40
67196;DHT22;54122;53.538;49.366;2022-09-14T17:05:59;13.90;77.00
67196;DHT22;54122;53.538;49.366;2022-09-14T17:08:25;13.90;77.40
67196;DHT22;54122;53.538;49.366;2022-09-14T17:10:51;13.90;78.00
67196;DHT22;54122;53.538;49.366;2022-09-14T17:13:17;13.90;78.40
67196;DHT22;54122;53.538;49.366;2022-09-14T17:15:43;13.80;78.60
67196;DHT22;54122;53.538;49.366;2022-09-14T17:18:09;13.80;78.70
67196;DHT22;54122;53.538;49.366;2022-09-14T17:20:35;13.70;79.00
67196;DHT22;54122;53.538;49.366;2022-09-14T17:23:04;13.70;79.50
67196;DHT22;54122;53.538;49.366;2022-09-14T17:25:31;13.60;79.60
67196;DHT22;54122;53.538;49.366;2022-09-14T17:27:57;13.60;79.90
67196;DHT22;54122;53.538;49.366;2022-09-14T17:30:23;13.60;80.20
67196;DHT22;54122;53.538;49.366;2022-09-14T17:32:49;13.50;80.70
67196;DHT22;54122;53.538;49.366;2022-09-14T17:35:15;13.50;80.90
67196;DHT22;54122;53.538;49.366;2022-09-14T17:37:42;13.50;81.20
67196;DHT22;54122;53.538;49.366;2022-09-14T17:40:08;13.40;81.40
67196;DHT22;54122;53.538;49.366;2022-09-14T17:42:38;13.40;81.30
67196;DHT22;54122;53.538;49.366;2022-09-14T17:45:04;13.40;81.60
67196;DHT22;54122;53.538;49.366;2022-09-14T17:47:33;13.30;81.70
67196;DHT22;54122;53.538;49.366;2022-09-14T17:49:59;13.30;82.00
67196;DHT22;54122;53.538;49.366;2022-09-14T17:52:26;13.30;83.10
67196;DHT22;54122;53.538;49.366;2022-09-14T17:54:52;13.20;83.70
67196;DHT22;54122;53.538;49.366;2022-09-14T17:57:18;13.20;84.20